sensor_id;sensor_type;location;lat;lon;timestamp;pressure;altitude;pressure_sealevel;temperature;humidity
23589;BME280;11972;48.078;11.876;2023-04-01T00:01:05;94189.13;;;7.61;100.00
23589;BME280;11972;48.078;11.876;2023-04-01T00:05:06;94185.28;;;7.57;100.00
23589;BME280;11972;48.078;11.876;2023-04-01T00:09:06;94187.69;;;7.52;100.00
23589;BME280;11972;48.078;11.876;2023-04-01T00:13:07;94174.75;;;7.50;100.00
23589;BME280;11972;48.078;11.876;2023-04-01T00:17:08;94174.94;;;7.49;100.00
23589;BME280;11972;48.078;11.876;2023-04-01T00:21:08;94161.59;;;7.43;100.00
23589;BME280;11972;48.078;11.876;2023-04-01T00:25:09;94173.50;;;7.39;100.00
23589;BME280;11972;48.078;11.876;2023-04-01T00:29:09;94169.41;;;7.30;100.00
23589;BME280;11972;48.078;11.876;2023-04-01T00:33:10;94159.88;;;7.22;100.00
23589;BME280;11972;48.078;11.876;2023-04-01T00:37:11;94159.22;;;7.14;100.00
23589;BME280;11972;48.078;11.876;2023-04-01T00:41:12;94152.75;;;7.10;100.00
23589;BME280;11972;48.078;11.876;2023-04-01T00:45:26;94153.91;;;7.01;100.00
23589;BME280;11972;48.078;11.876;2023-04-01T00:49:29;94164.34;;;6.87;100.00
23589;BME280;11972;48.078;11.876;2023-04-01T00:53:32;94161.59;;;6.74;100.00
23589;BME280;11972;48.078;11.876;2023-04-01T00:57:35;94158.56;;;6.70;100.00
23589;BME280;11972;48.078;11.876;2023-04-01T01:01:37;94167.72;;;6.81;100.00
23589;BME280;11972;48.078;11.876;2023-04-01T01:14:01;94163.63;;;7.07;100.00
23589;BME280;11972;48.078;11.876;2023-04-01T01:18:32;94162.44;;;7.09;100.00
23589;BME280;11972;48.078;11.876;2023-04-01T01:31:07;94153.03;;;7.28;100.00
23589;BME280;11972;48.078;11.876;2023-04-01T01:39:34;94158.31;;;7.35;100.00
23589;BME280;11972;48.078;11.876;2023-04-01T01:43:39;94153.28;;;7.33;100.00
23589;BME280;11972;48.078;11.876;2023-04-01T01:47:41;94152.47;;;7.39;100.00
23589;BME280;11972;48.078;11.876;2023-04-01T01:51:42;94157.94;;;7.44;100.00
23589;BME280;11972;48.078;11.876;2023-04-01T01:55:44;94154.72;;;7.42;100.00
23589;BME280;11972;48.078;11.876;2023-04-01T01:59:47;94141.34;;;7.31;100.00
23589;BME280;11972;48.078;11.876;2023-04-01T02:03:49;94144.94;;;7.23;100.00
23589;BME280;11972;48.078;11.876;2023-04-01T02:08:15;94147.53;;;7.16;100.00
23589;BME280;11972;48.078;11.876;2023-04-01T02:12:19;94144.50;;;7.13;100.00
23589;BME280;11972;48.078;11.876;2023-04-01T02:16:33;94150.97;;;7.17;100.00
23589;BME280;11972;48.078;11.876;2023-04-01T02:20:35;94163.47;;;7.15;100.00
23589;BME280;11972;48.078;11.876;2023-04-01T02:24:39;94161.06;;;7.13;100.00
23589;BME280;11972;48.078;11.876;2023-04-01T02:28:41;94169.13;;;7.12;100.00
23589;BME280;11972;48.078;11.876;2023-04-01T02:32:42;94185.50;;;7.14;100.00
23589;BME280;11972;48.078;11.876;2023-04-01T02:36:42;94170.38;;;7.16;100.00
23589;BME280;11972;48.078;11.876;2023-04-01T02:40:52;94163.47;;;7.15;100.00
23589;BME280;11972;48.078;11.876;2023-04-01T02:44:56;94166.72;;;7.17;100.00
23589;BME280;11972;48.078;11.876;2023-04-01T02:48:56;94188.56;;;7.24;100.00
23589;BME280;11972;48.078;11.876;2023-04-01T02:52:57;94178.91;;;7.31;100.00
23589;BME280;11972;48.078;11.876;2023-04-01T02:56:57;94172.91;;;7.37;100.00
23589;BME280;11972;48.078;11.876;2023-04-01T03:00:57;94179.75;;;7.38;100.00
23589;BME280;11972;48.078;11.876;2023-04-01T03:04:57;94192.03;;;7.31;100.00
23589;BME280;11972;48.078;11.876;2023-04-01T03:08:58;94181.16;;;7.34;100.00
23589;BME280;11972;48.078;11.876;2023-04-01T03:12:58;94180.56;;;7.39;100.00
23589;BME280;11972;48.078;11.876;2023-04-01T03:16:58;94192.25;;;7.36;100.00
23589;BME280;11972;48.078;11.876;2023-04-01T03:21:17;94195.09;;;7.35;100.00
23589;BME280;11972;48.078;11.876;2023-04-01T03:25:18;94198.31;;;7.30;100.00
23589;BME280;11972;48.078;11.876;2023-04-01T03:29:18;94200.06;;;7.23;100.00
23589;BME280;11972;48.078;11.876;2023-04-01T03:33:18;94208.34;;;7.20;100.00
23589;BME280;11972;48.078;11.876;2023-04-01T03:37:18;94197.03;;;7.19;100.00
23589;BME280;11972;48.078;11.876;2023-04-01T03:41:19;94200.88;;;7.17;100.00
23589;BME280;11972;48.078;11.876;2023-04-01T03:45:20;94202.84;;;7.08;100.00
23589;BME280;11972;48.078;11.876;2023-04-01T03:49:21;94207.03;;;7.03;100.00
23589;BME280;11972;48.078;11.876;2023-04-01T03:53:21;94211.19;;;6.90;100.00
23589;BME280;11972;48.078;11.876;2023-04-01T03:57:21;94204.09;;;6.84;100.00
23589;BME280;11972;48.078;11.876;2023-04-01T04:01:22;94219.97;;;6.76;100.00
23589;BME280;11972;48.078;11.876;2023-04-01T04:05:23;94219.03;;;6.84;100.00
23589;BME280;11972;48.078;11.876;2023-04-01T04:09:24;94220.28;;;6.94;100.00
23589;BME280;11972;48.078;11.876;2023-04-01T04:13:24;94213.44;;;6.93;100.00
23589;BME280;11972;48.078;11.876;2023-04-01T04:17:24;94220.22;;;6.81;100.00
23589;BME280;11972;48.078;11.876;2023-04-01T04:21:25;94216.84;;;6.66;100.00
23589;BME280;11972;48.078;11.876;2023-04-01T04:25:25;94219.16;;;6.54;100.00
23589;BME280;11972;48.078;11.876;2023-04-01T04:29:25;94217.88;;;6.43;100.00
23589;BME280;11972;48.078;11.876;2023-04-01T04:33:27;94227.88;;;6.33;100.00
23589;BME280;11972;48.078;11.876;2023-04-01T04:37:28;94230.31;;;6.35;100.00
23589;BME280;11972;48.078;11.876;2023-04-01T04:41:28;94225.88;;;6.57;100.00
23589;BME280;11972;48.078;11.876;2023-04-01T04:45:29;94238.72;;;6.73;100.00
23589;BME280;11972;48.078;11.876;2023-04-01T04:49:29;94231.72;;;6.80;100.00
23589;BME280;11972;48.078;11.876;2023-04-01T04:53:30;94226.22;;;6.75;100.00
23589;BME280;11972;48.078;11.876;2023-04-01T04:57:30;94227.34;;;6.66;100.00
23589;BME280;11972;48.078;11.876;2023-04-01T05:01:30;94238.25;;;6.63;100.00
23589;BME280;11972;48.078;11.876;2023-04-01T05:05:31;94236.66;;;6.68;100.00
23589;BME280;11972;48.078;11.876;2023-04-01T05:09:31;94238.94;;;6.78;100.00
23589;BME280;11972;48.078;11.876;2023-04-01T05:13:32;94251.09;;;6.79;100.00
23589;BME280;11972;48.078;11.876;2023-04-01T05:17:32;94244.94;;;6.93;100.00
23589;BME280;11972;48.078;11.876;2023-04-01T05:21:32;94248.66;;;7.06;100.00
23589;BME280;11972;48.078;11.876;2023-04-01T05:25:33;94241.50;;;7.21;100.00
23589;BME280;11972;48.078;11.876;2023-04-01T05:29:33;94247.63;;;7.35;100.00
23589;BME280;11972;48.078;11.876;2023-04-01T05:33:34;94250.53;;;7.46;100.00
23589;BME280;11972;48.078;11.876;2023-04-01T05:37:35;94234.38;;;7.50;100.00
23589;BME280;11972;48.078;11.876;2023-04-01T05:41:36;94235.63;;;7.60;100.00
23589;BME280;11972;48.078;11.876;2023-04-01T05:45:37;94233.63;;;7.69;100.00
23589;BME280;11972;48.078;11.876;2023-04-01T05:49:37;94239.69;;;7.63;100.00
23589;BME280;11972;48.078;11.876;2023-04-01T05:53:37;94245.97;;;7.68;100.00
23589;BME280;11972;48.078;11.876;2023-04-01T05:57:38;94233.25;;;7.72;100.00
23589;BME280;11972;48.078;11.876;2023-04-01T06:01:38;94238.50;;;7.72;100.00
23589;BME280;11972;48.078;11.876;2023-04-01T06:05:41;94237.75;;;7.78;100.00
23589;BME280;11972;48.078;11.876;2023-04-01T06:09:43;94244.25;;;7.89;100.00
23589;BME280;11972;48.078;11.876;2023-04-01T06:14:11;94246.69;;;7.97;100.00
23589;BME280;11972;48.078;11.876;2023-04-01T06:18:35;94241.47;;;8.04;100.00
23589;BME280;11972;48.078;11.876;2023-04-01T06:27:42;94239.69;;;8.17;100.00
23589;BME280;11972;48.078;11.876;2023-04-01T06:32:11;94233.47;;;8.38;100.00
23589;BME280;11972;48.078;11.876;2023-04-01T06:44:44;94243.22;;;8.58;100.00
23589;BME280;11972;48.078;11.876;2023-04-01T06:53:46;94235.94;;;8.47;100.00
23589;BME280;11972;48.078;11.876;2023-04-01T06:57:47;94239.59;;;8.59;100.00
23589;BME280;11972;48.078;11.876;2023-04-01T07:02:02;94237.97;;;8.84;100.00
23589;BME280;11972;48.078;11.876;2023-04-01T07:06:09;94233.13;;;8.81;100.00
23589;BME280;11972;48.078;11.876;2023-04-01T07:14:36;94244.06;;;8.78;100.00
23589;BME280;11972;48.078;11.876;2023-04-01T07:18:54;94241.22;;;8.80;100.00
23589;BME280;11972;48.078;11.876;2023-04-01T07:22:59;94239.63;;;9.05;100.00
23589;BME280;11972;48.078;11.876;2023-04-01T07:27:00;94250.50;;;9.35;100.00
23589;BME280;11972;48.078;11.876;2023-04-01T07:35:30;94247.22;;;9.53;100.00
23589;BME280;11972;48.078;11.876;2023-04-01T07:44:08;94255.69;;;9.75;100.00
23589;BME280;11972;48.078;11.876;2023-04-01T07:48:28;94263.16;;;9.85;100.00
23589;BME280;11972;48.078;11.876;2023-04-01T07:53:05;94297.78;;;10.02;100.00
23589;BME280;11972;48.078;11.876;2023-04-01T07:57:22;94253.28;;;10.12;100.00
23589;BME280;11972;48.078;11.876;2023-04-01T08:01:49;94267.06;;;10.27;100.00
23589;BME280;11972;48.078;11.876;2023-04-01T08:05:57;94282.59;;;10.49;100.00
23589;BME280;11972;48.078;11.876;2023-04-01T08:10:17;94258.16;;;10.60;100.00
23589;BME280;11972;48.078;11.876;2023-04-01T08:14:32;94267.19;;;10.46;100.00
23589;BME280;11972;48.078;11.876;2023-04-01T08:27:20;94257.63;;;10.76;100.00
23589;BME280;11972;48.078;11.876;2023-04-01T08:31:33;94239.22;;;10.95;100.00
23589;BME280;11972;48.078;11.876;2023-04-01T08:44:55;94260.66;;;11.30;100.00
23589;BME280;11972;48.078;11.876;2023-04-01T08:49:21;94237.44;;;10.88;100.00
23589;BME280;11972;48.078;11.876;2023-04-01T08:58:06;94228.25;;;11.78;100.00
23589;BME280;11972;48.078;11.876;2023-04-01T09:11:20;94218.00;;;12.36;100.00
23589;BME280;11972;48.078;11.876;2023-04-01T09:15:33;94220.94;;;12.28;100.00
23589;BME280;11972;48.078;11.876;2023-04-01T09:20:08;94217.19;;;12.06;100.00
23589;BME280;11972;48.078;11.876;2023-04-01T09:37:35;94201.88;;;12.38;100.00
23589;BME280;11972;48.078;11.876;2023-04-01T09:46:00;94198.84;;;13.42;100.00
23589;BME280;11972;48.078;11.876;2023-04-01T09:59:05;94199.41;;;13.32;100.00
23589;BME280;11972;48.078;11.876;2023-04-01T10:03:45;94200.91;;;13.39;100.00
23589;BME280;11972;48.078;11.876;2023-04-01T10:12:30;94183.22;;;13.57;100.00
23589;BME280;11972;48.078;11.876;2023-04-01T10:16:43;94183.00;;;13.70;100.00
23589;BME280;11972;48.078;11.876;2023-04-01T10:21:20;94176.47;;;13.89;100.00
23589;BME280;11972;48.078;11.876;2023-04-01T10:47:19;94174.69;;;13.20;100.00
23589;BME280;11972;48.078;11.876;2023-04-01T10:56:18;94172.41;;;13.47;100.00
23589;BME280;11972;48.078;11.876;2023-04-01T11:00:45;94164.91;;;13.55;100.00
23589;BME280;11972;48.078;11.876;2023-04-01T11:14:04;94218.78;;;11.88;100.00
23589;BME280;11972;48.078;11.876;2023-04-01T11:18:39;94206.09;;;11.60;100.00
23589;BME280;11972;48.078;11.876;2023-04-01T11:23:13;94207.84;;;11.66;100.00
23589;BME280;11972;48.078;11.876;2023-04-01T11:31:57;94214.78;;;11.86;100.00
23589;BME280;11972;48.078;11.876;2023-04-01T11:36:04;94221.06;;;11.48;100.00
23589;BME280;11972;48.078;11.876;2023-04-01T11:40:27;94244.84;;;11.48;100.00
23589;BME280;11972;48.078;11.876;2023-04-01T11:44:34;94214.03;;;11.35;100.00
23589;BME280;11972;48.078;11.876;2023-04-01T11:48:53;94226.13;;;11.50;100.00
23589;BME280;11972;48.078;11.876;2023-04-01T12:06:30;94243.41;;;11.27;100.00
23589;BME280;11972;48.078;11.876;2023-04-01T12:10:53;94265.38;;;11.03;100.00
23589;BME280;11972;48.078;11.876;2023-04-01T12:15:17;94262.00;;;10.19;100.00
23589;BME280;11972;48.078;11.876;2023-04-01T12:19:58;94278.66;;;9.55;100.00
23589;BME280;11972;48.078;11.876;2023-04-01T12:28:54;94281.50;;;10.18;100.00
23589;BME280;11972;48.078;11.876;2023-04-01T12:47:45;94288.63;;;8.73;100.00
23589;BME280;11972;48.078;11.876;2023-04-01T12:52:13;94291.44;;;8.65;100.00
23589;BME280;11972;48.078;11.876;2023-04-01T12:56:40;94273.59;;;8.67;100.00
23589;BME280;11972;48.078;11.876;2023-04-01T13:01:08;94285.72;;;8.55;100.00
23589;BME280;11972;48.078;11.876;2023-04-01T13:05:20;94282.88;;;8.43;100.00
23589;BME280;11972;48.078;11.876;2023-04-01T13:18:29;94287.06;;;8.24;100.00
23589;BME280;11972;48.078;11.876;2023-04-01T13:26:53;94282.75;;;8.10;100.00
23589;BME280;11972;48.078;11.876;2023-04-01T13:31:15;94281.94;;;8.03;100.00
23589;BME280;11972;48.078;11.876;2023-04-01T13:35:36;94300.13;;;8.04;100.00
23589;BME280;11972;48.078;11.876;2023-04-01T13:43:52;94288.34;;;7.93;100.00
23589;BME280;11972;48.078;11.876;2023-04-01T13:48:21;94298.84;;;7.87;100.00
23589;BME280;11972;48.078;11.876;2023-04-01T13:52:54;94307.06;;;7.77;100.00
23589;BME280;11972;48.078;11.876;2023-04-01T14:06:05;94306.78;;;7.59;100.00
23589;BME280;11972;48.078;11.876;2023-04-01T14:10:52;94290.00;;;7.60;100.00
23589;BME280;11972;48.078;11.876;2023-04-01T14:15:05;94282.19;;;7.73;100.00
23589;BME280;11972;48.078;11.876;2023-04-01T14:40:54;94303.13;;;8.42;100.00
23589;BME280;11972;48.078;11.876;2023-04-01T14:49:49;94294.91;;;8.11;100.00
23589;BME280;11972;48.078;11.876;2023-04-01T14:58:12;94299.38;;;8.17;100.00
23589;BME280;11972;48.078;11.876;2023-04-01T15:02:34;94307.53;;;8.35;100.00
23589;BME280;11972;48.078;11.876;2023-04-01T15:06:56;94303.47;;;8.33;100.00
23589;BME280;11972;48.078;11.876;2023-04-01T15:11:15;94323.72;;;8.32;100.00
23589;BME280;11972;48.078;11.876;2023-04-01T15:15:50;94306.16;;;8.39;100.00
23589;BME280;11972;48.078;11.876;2023-04-01T15:20:22;94313.63;;;8.42;100.00
23589;BME280;11972;48.078;11.876;2023-04-01T15:45:58;94308.78;;;8.46;100.00
23589;BME280;11972;48.078;11.876;2023-04-01T15:50:26;94308.34;;;8.36;100.00
23589;BME280;11972;48.078;11.876;2023-04-01T15:54:32;94313.19;;;8.32;100.00
23589;BME280;11972;48.078;11.876;2023-04-01T16:07:31;94320.69;;;8.35;100.00
23589;BME280;11972;48.078;11.876;2023-04-01T16:11:45;94329.84;;;8.39;100.00
23589;BME280;11972;48.078;11.876;2023-04-01T16:20:20;94321.00;;;8.80;100.00
23589;BME280;11972;48.078;11.876;2023-04-01T16:24:24;94322.22;;;8.84;100.00
23589;BME280;11972;48.078;11.876;2023-04-01T16:28:35;94336.41;;;8.97;100.00
23589;BME280;11972;48.078;11.876;2023-04-01T16:32:43;94322.06;;;9.12;100.00
23589;BME280;11972;48.078;11.876;2023-04-01T16:36:51;94336.03;;;9.06;100.00
23589;BME280;11972;48.078;11.876;2023-04-01T16:45:19;94331.59;;;9.07;100.00
23589;BME280;11972;48.078;11.876;2023-04-01T16:49:32;94318.41;;;9.07;100.00
23589;BME280;11972;48.078;11.876;2023-04-01T16:58:05;94325.09;;;9.03;100.00
23589;BME280;11972;48.078;11.876;2023-04-01T17:06:25;94334.41;;;8.85;100.00
23589;BME280;11972;48.078;11.876;2023-04-01T17:10:43;94348.16;;;8.74;100.00
23589;BME280;11972;48.078;11.876;2023-04-01T17:14:54;94343.28;;;8.64;100.00
23589;BME280;11972;48.078;11.876;2023-04-01T17:19:18;94356.00;;;8.61;100.00
23589;BME280;11972;48.078;11.876;2023-04-01T17:23:43;94359.41;;;8.55;100.00
23589;BME280;11972;48.078;11.876;2023-04-01T17:27:52;94358.50;;;8.34;100.00
23589;BME280;11972;48.078;11.876;2023-04-01T17:36:10;94356.47;;;8.23;100.00
23589;BME280;11972;48.078;11.876;2023-04-01T17:40:24;94371.25;;;8.31;100.00
23589;BME280;11972;48.078;11.876;2023-04-01T17:53:28;94381.44;;;8.40;100.00
23589;BME280;11972;48.078;11.876;2023-04-01T17:57:43;94372.13;;;8.38;100.00
23589;BME280;11972;48.078;11.876;2023-04-01T18:10:17;94374.03;;;8.16;100.00
23589;BME280;11972;48.078;11.876;2023-04-01T18:22:48;94385.41;;;8.23;100.00
23589;BME280;11972;48.078;11.876;2023-04-01T18:27:10;94390.06;;;8.28;100.00
23589;BME280;11972;48.078;11.876;2023-04-01T18:31:19;94403.88;;;8.36;100.00
23589;BME280;11972;48.078;11.876;2023-04-01T18:39:46;94432.41;;;8.05;100.00
23589;BME280;11972;48.078;11.876;2023-04-01T18:48:30;94436.88;;;7.76;100.00
23589;BME280;11972;48.078;11.876;2023-04-01T18:52:40;94433.78;;;7.66;100.00
23589;BME280;11972;48.078;11.876;2023-04-01T18:56:43;94434.59;;;7.66;100.00
23589;BME280;11972;48.078;11.876;2023-04-01T19:05:02;94438.22;;;7.65;100.00
23589;BME280;11972;48.078;11.876;2023-04-01T19:09:43;94442.28;;;7.68;100.00
23589;BME280;11972;48.078;11.876;2023-04-01T19:14:00;94430.94;;;7.67;100.00
23589;BME280;11972;48.078;11.876;2023-04-01T19:26:32;94457.66;;;7.71;100.00
23589;BME280;11972;48.078;11.876;2023-04-01T19:35:07;94465.19;;;7.74;100.00
23589;BME280;11972;48.078;11.876;2023-04-01T19:39:39;94448.41;;;7.75;100.00
23589;BME280;11972;48.078;11.876;2023-04-01T19:43:58;94451.03;;;7.75;100.00
23589;BME280;11972;48.078;11.876;2023-04-01T19:52:31;94458.91;;;7.75;100.00
23589;BME280;11972;48.078;11.876;2023-04-01T19:56:47;94463.81;;;7.78;100.00
23589;BME280;11972;48.078;11.876;2023-04-01T20:00:58;94474.31;;;7.78;100.00
23589;BME280;11972;48.078;11.876;2023-04-01T20:05:03;94475.50;;;7.76;100.00
23589;BME280;11972;48.078;11.876;2023-04-01T20:09:15;94471.00;;;7.69;100.00
23589;BME280;11972;48.078;11.876;2023-04-01T20:13:30;94472.13;;;7.60;100.00
23589;BME280;11972;48.078;11.876;2023-04-01T20:17:43;94484.34;;;7.46;100.00
23589;BME280;11972;48.078;11.876;2023-04-01T20:21:49;94493.94;;;7.33;100.00
23589;BME280;11972;48.078;11.876;2023-04-01T20:25:57;94487.94;;;7.24;100.00
23589;BME280;11972;48.078;11.876;2023-04-01T20:30:19;94486.44;;;7.15;100.00
23589;BME280;11972;48.078;11.876;2023-04-01T20:35:14;94499.59;;;7.15;100.00
23589;BME280;11972;48.078;11.876;2023-04-01T20:43:26;94508.22;;;7.30;100.00
23589;BME280;11972;48.078;11.876;2023-04-01T20:56:33;94507.75;;;7.41;100.00
23589;BME280;11972;48.078;11.876;2023-04-01T21:09:28;94498.94;;;7.49;100.00
23589;BME280;11972;48.078;11.876;2023-04-01T21:18:40;94510.06;;;7.51;100.00
23589;BME280;11972;48.078;11.876;2023-04-01T21:27:07;94517.38;;;7.56;100.00
23589;BME280;11972;48.078;11.876;2023-04-01T21:31:18;94514.94;;;7.54;100.00
23589;BME280;11972;48.078;11.876;2023-04-01T21:35:52;94514.94;;;7.54;100.00
23589;BME280;11972;48.078;11.876;2023-04-01T21:44:39;94533.50;;;7.53;100.00
23589;BME280;11972;48.078;11.876;2023-04-01T21:57:35;94530.88;;;7.53;100.00
23589;BME280;11972;48.078;11.876;2023-04-01T22:02:21;94540.41;;;7.54;100.00
23589;BME280;11972;48.078;11.876;2023-04-01T22:06:52;94533.91;;;7.50;100.00
23589;BME280;11972;48.078;11.876;2023-04-01T22:11:01;94539.16;;;7.50;100.00
23589;BME280;11972;48.078;11.876;2023-04-01T22:15:15;94545.22;;;7.50;100.00
23589;BME280;11972;48.078;11.876;2023-04-01T22:19:26;94547.41;;;7.46;100.00
23589;BME280;11972;48.078;11.876;2023-04-01T22:23:35;94546.75;;;7.44;100.00
23589;BME280;11972;48.078;11.876;2023-04-01T22:31:49;94553.22;;;7.42;100.00
23589;BME280;11972;48.078;11.876;2023-04-01T22:53:29;94552.00;;;7.44;100.00
23589;BME280;11972;48.078;11.876;2023-04-01T22:57:45;94564.16;;;7.45;100.00
23589;BME280;11972;48.078;11.876;2023-04-01T23:02:15;94568.16;;;7.41;100.00
23589;BME280;11972;48.078;11.876;2023-04-01T23:06:38;94567.88;;;7.36;100.00
23589;BME280;11972;48.078;11.876;2023-04-01T23:10:45;94570.91;;;7.33;100.00
23589;BME280;11972;48.078;11.876;2023-04-01T23:14:52;94572.91;;;7.31;100.00
23589;BME280;11972;48.078;11.876;2023-04-01T23:27:50;94581.88;;;7.37;100.00
23589;BME280;11972;48.078;11.876;2023-04-01T23:31:59;94582.69;;;7.37;100.00
23589;BME280;11972;48.078;11.876;2023-04-01T23:36:10;94581.03;;;7.36;100.00
23589;BME280;11972;48.078;11.876;2023-04-01T23:40:13;94581.41;;;7.33;100.00
23589;BME280;11972;48.078;11.876;2023-04-01T23:44:14;94590.84;;;7.28;100.00
23589;BME280;11972;48.078;11.876;2023-04-01T23:48:16;94585.13;;;7.24;100.00
23589;BME280;11972;48.078;11.876;2023-04-01T23:52:25;94594.38;;;7.20;100.00
23589;BME280;11972;48.078;11.876;2023-04-01T23:56:42;94596.56;;;7.16;100.00
